createdAt,value
2018-04-28T00:00:17.870Z,17.00
2018-04-28T00:01:56.283Z,17.20
2018-04-28T00:03:32.843Z,17.50
2018-04-28T00:05:09.353Z,17.60
2018-04-28T00:06:46.415Z,17.50
2018-04-28T00:08:23.369Z,17.30
2018-04-28T00:10:00.019Z,17.30
2018-04-28T00:11:40.105Z,17.40
2018-04-28T00:13:17.217Z,17.70
2018-04-28T00:14:57.014Z,17.70
2018-04-28T00:16:34.493Z,17.30
2018-04-28T00:18:11.030Z,17.10
2018-04-28T00:19:48.592Z,17.00
2018-04-28T00:21:26.902Z,16.70
2018-04-28T00:23:05.280Z,16.80
2018-04-28T00:24:41.864Z,17.00
2018-04-28T00:26:18.971Z,17.10
2018-04-28T00:28:00.376Z,17.40
2018-04-28T00:29:37.242Z,17.40
2018-04-28T00:31:15.191Z,17.60
2018-04-28T00:32:52.563Z,17.40
2018-04-28T00:34:29.181Z,17.30
2018-04-28T00:36:07.083Z,17.60
2018-04-28T00:37:46.569Z,17.50
2018-04-28T00:39:24.518Z,17.70
2018-04-28T00:41:01.861Z,17.80
2018-04-28T00:42:38.490Z,17.80
2018-04-28T00:44:15.856Z,17.90
2018-04-28T00:45:53.353Z,17.70
2018-04-28T00:47:34.877Z,17.60
2018-04-28T00:49:12.781Z,17.20
2018-04-28T00:50:50.031Z,17.10
2018-04-28T00:52:27.492Z,16.90
2018-04-28T00:54:06.623Z,16.80
2018-04-28T00:55:43.334Z,16.80
2018-04-28T00:57:24.394Z,16.80
2018-04-28T00:59:01.529Z,16.80
2018-04-28T01:00:38.496Z,16.80
2018-04-28T01:02:16.161Z,17.30
2018-04-28T01:03:53.314Z,17.30
2018-04-28T01:05:30.369Z,17.70
2018-04-28T01:07:06.885Z,17.80
2018-04-28T01:08:44.647Z,17.70
2018-04-28T01:10:21.503Z,17.70
2018-04-28T01:11:59.814Z,17.60
2018-04-28T01:13:36.454Z,17.40
2018-04-28T01:15:14.994Z,17.50
2018-04-28T01:16:51.910Z,17.50
2018-04-28T01:18:28.978Z,17.50
2018-04-28T01:20:06.145Z,17.70
2018-04-28T01:21:42.963Z,17.60
2018-04-28T01:23:19.947Z,17.30
2018-04-28T01:24:57.467Z,17.30
2018-04-28T01:26:39.282Z,17.30
2018-04-28T01:28:16.253Z,17.50
2018-04-28T01:29:52.865Z,17.70
2018-04-28T01:31:30.037Z,17.60
2018-04-28T01:33:06.961Z,17.60
2018-04-28T01:34:43.546Z,17.30
2018-04-28T01:36:20.370Z,17.00
2018-04-28T01:38:04.807Z,16.70
2018-04-28T01:39:42.143Z,16.80
2018-04-28T01:41:18.770Z,16.80
2018-04-28T01:42:56.184Z,16.80
2018-04-28T01:44:33.707Z,16.80
2018-04-28T01:46:10.384Z,17.10
2018-04-28T01:47:52.752Z,16.80
2018-04-28T01:49:29.269Z,16.90
2018-04-28T01:51:06.360Z,16.90
2018-04-28T01:52:42.813Z,17.20
2018-04-28T01:54:20.025Z,17.50
2018-04-28T01:55:58.732Z,16.90
2018-04-28T01:57:36.873Z,17.10
2018-04-28T01:59:13.687Z,17.10
2018-04-28T02:00:51.209Z,17.10
2018-04-28T02:02:28.358Z,17.30
2018-04-28T02:04:05.305Z,17.20
2018-04-28T02:05:42.151Z,16.70
2018-04-28T02:07:19.483Z,16.70
2018-04-28T02:08:58.096Z,16.30
2018-04-28T02:10:36.645Z,16.30
2018-04-28T02:12:14.163Z,16.40
2018-04-28T02:13:50.973Z,16.80
2018-04-28T02:15:27.928Z,16.70
2018-04-28T02:17:05.541Z,16.50
2018-04-28T02:18:42.577Z,16.50
2018-04-28T02:20:21.051Z,16.20
2018-04-28T02:21:57.911Z,16.20
2018-04-28T02:23:34.549Z,16.40
2018-04-28T02:25:11.997Z,16.80
2018-04-28T02:26:48.861Z,16.80
2018-04-28T02:28:28.353Z,17.00
2018-04-28T02:30:08.558Z,16.90
2018-04-28T02:31:45.516Z,16.30
2018-04-28T02:33:22.142Z,16.30
2018-04-28T02:34:59.425Z,16.10
2018-04-28T02:36:38.024Z,16.10
2018-04-28T02:38:16.326Z,15.80
2018-04-28T02:39:55.675Z,15.80
2018-04-28T02:41:36.730Z,16.00
2018-04-28T02:43:13.768Z,16.00
2018-04-28T02:44:54.357Z,16.10
2018-04-28T02:46:31.917Z,16.30
2018-04-28T02:48:08.641Z,16.20
2018-04-28T02:49:47.207Z,16.20
2018-04-28T02:51:24.297Z,16.20
2018-04-28T02:53:08.061Z,16.30
2018-04-28T02:54:46.871Z,16.60
2018-04-28T02:56:24.372Z,16.50
2018-04-28T02:58:01.050Z,16.50
2018-04-28T02:59:37.698Z,16.60
2018-04-28T03:01:15.585Z,16.80
2018-04-28T03:02:52.238Z,16.80
2018-04-28T03:04:30.348Z,17.00
2018-04-28T03:06:07.473Z,17.10
2018-04-28T03:07:45.804Z,16.90
2018-04-28T03:09:24.677Z,16.90
2018-04-28T03:11:01.425Z,16.70
2018-04-28T03:12:37.443Z,16.30
2018-04-28T03:14:14.920Z,16.20
2018-04-28T03:15:51.237Z,16.10
2018-04-28T03:17:28.571Z,16.00
2018-04-28T03:19:05.631Z,16.00
2018-04-28T03:20:43.398Z,16.00
2018-04-28T03:22:19.865Z,16.00
2018-04-28T03:23:56.808Z,16.40
2018-04-28T03:25:33.438Z,16.50
2018-04-28T03:27:10.737Z,16.80
2018-04-28T03:28:47.527Z,16.70
2018-04-28T03:30:23.820Z,16.70
2018-04-28T03:32:00.011Z,16.80
2018-04-28T03:33:36.683Z,17.10
2018-04-28T03:35:13.046Z,17.20
2018-04-28T03:36:50.011Z,17.00
2018-04-28T03:38:26.538Z,16.50
2018-04-28T03:40:03.364Z,16.50
2018-04-28T03:41:39.710Z,16.20
2018-04-28T03:43:20.234Z,16.60
2018-04-28T03:44:56.947Z,16.70
2018-04-28T03:46:34.789Z,16.50
2018-04-28T03:48:11.245Z,16.60
2018-04-28T03:49:47.651Z,16.80
2018-04-28T03:51:24.017Z,16.90
2018-04-28T03:53:05.572Z,16.70
2018-04-28T03:54:42.852Z,16.50
2018-04-28T03:56:19.218Z,16.50
2018-04-28T03:58:12.211Z,16.50
2018-04-28T04:03:50.161Z,16.80
2018-04-28T04:05:26.761Z,16.70
2018-04-28T04:07:03.401Z,16.50
2018-04-28T04:08:39.767Z,16.40
2018-04-28T04:10:15.964Z,16.10
2018-04-28T04:11:52.573Z,16.20
2018-04-28T04:13:37.311Z,16.30
2018-04-28T04:15:16.069Z,16.40
2018-04-28T04:16:52.517Z,16.30
2018-04-28T04:18:29.901Z,16.40
2018-04-28T04:20:06.874Z,16.50
2018-04-28T04:21:43.671Z,16.10
2018-04-28T04:23:20.299Z,16.00
2018-04-28T04:24:56.634Z,16.10
2018-04-28T04:26:33.688Z,16.20
2018-04-28T04:28:11.105Z,15.60
2018-04-28T04:29:47.511Z,15.80
2018-04-28T04:31:24.146Z,16.10
2018-04-28T04:33:00.852Z,16.20
2018-04-28T04:34:40.446Z,16.30
2018-04-28T04:36:17.013Z,16.30
2018-04-28T04:37:53.647Z,16.30
2018-04-28T04:39:30.158Z,16.20
2018-04-28T04:41:07.107Z,16.20
2018-04-28T04:42:49.909Z,16.10
2018-04-28T04:44:27.189Z,16.00
2018-04-28T04:46:04.624Z,15.90
2018-04-28T04:47:41.734Z,16.10
2018-04-28T04:49:18.067Z,16.20
2018-04-28T04:50:56.138Z,16.20
2018-04-28T04:52:32.566Z,16.20
2018-04-28T04:54:10.040Z,16.40
2018-04-28T04:55:46.222Z,16.60
2018-04-28T04:57:22.498Z,16.70
2018-04-28T04:59:03.066Z,16.80
2018-04-28T05:00:39.731Z,16.90
2018-04-28T05:02:16.128Z,16.80
2018-04-28T05:03:52.737Z,16.80
2018-04-28T05:05:29.893Z,16.80
2018-04-28T05:07:07.037Z,16.70
2018-04-28T05:08:43.215Z,16.70
2018-04-28T05:10:19.673Z,16.80
2018-04-28T05:11:56.280Z,17.00
2018-04-28T05:13:33.360Z,17.10
2018-04-28T05:15:18.513Z,17.20
2018-04-28T05:16:57.105Z,17.20
2018-04-28T05:18:33.443Z,17.30
2018-04-28T05:20:14.624Z,17.30
2018-04-28T05:21:50.752Z,17.20
2018-04-28T05:23:27.306Z,17.10
2018-04-28T05:25:03.476Z,17.10
2018-04-28T05:26:40.301Z,17.20
2018-04-28T05:28:26.620Z,17.20
2018-04-28T05:30:05.070Z,17.20
2018-04-28T05:31:41.723Z,17.30
2018-04-28T05:33:22.416Z,17.40
2018-04-28T05:34:58.664Z,17.30
2018-04-28T05:36:34.905Z,17.30
2018-04-28T05:38:19.962Z,17.50
2018-04-28T05:40:00.142Z,17.50
2018-04-28T05:41:40.636Z,17.40
2018-04-28T05:43:18.418Z,17.30
2018-04-28T05:44:55.507Z,17.30
2018-04-28T05:46:32.632Z,17.20
2018-04-28T05:48:09.583Z,16.90
2018-04-28T05:49:49.014Z,16.80
2018-04-28T05:51:34.744Z,17.00
2018-04-28T05:53:11.917Z,17.00
2018-04-28T05:54:49.673Z,17.00
2018-04-28T05:56:26.173Z,17.00
2018-04-28T05:58:03.030Z,17.00
2018-04-28T05:59:42.888Z,17.10
2018-04-28T06:01:31.963Z,17.00
2018-04-28T06:03:14.956Z,17.20
2018-04-28T06:04:51.646Z,17.20
2018-04-28T06:06:28.149Z,17.20
2018-04-28T06:08:12.680Z,17.10
2018-04-28T06:09:49.006Z,17.00
2018-04-28T06:11:26.287Z,17.10
2018-04-28T06:13:07.847Z,17.10
2018-04-28T06:14:50.429Z,17.30
2018-04-28T06:16:26.838Z,17.30
2018-04-28T06:18:04.093Z,17.20
2018-04-28T06:19:41.762Z,17.20
2018-04-28T06:21:18.935Z,17.10
2018-04-28T06:22:55.344Z,17.10
2018-04-28T06:24:32.087Z,17.00
2018-04-28T06:26:08.190Z,16.90
2018-04-28T06:27:44.353Z,17.00
2018-04-28T06:29:20.984Z,16.90
2018-04-28T06:30:57.249Z,16.80
2018-04-28T06:32:33.442Z,16.70
2018-04-28T06:34:10.360Z,16.90
2018-04-28T06:35:46.876Z,16.90
2018-04-28T06:37:23.839Z,16.70
2018-04-28T06:39:03.561Z,16.70
2018-04-28T06:40:39.782Z,16.70
2018-04-28T06:42:16.349Z,16.40
2018-04-28T06:43:52.779Z,16.30
2018-04-28T06:45:28.871Z,16.20
2018-04-28T06:47:05.005Z,16.20
2018-04-28T06:48:42.453Z,16.50
2018-04-28T06:50:18.562Z,16.50
2018-04-28T06:51:54.562Z,16.60
2018-04-28T06:53:30.629Z,16.70
2018-04-28T06:55:07.970Z,16.90
2018-04-28T06:56:45.853Z,16.90
2018-04-28T06:58:22.710Z,16.90
2018-04-28T06:59:59.123Z,16.90
2018-04-28T07:01:35.870Z,17.00
2018-04-28T07:03:12.248Z,17.10
2018-04-28T07:04:48.691Z,17.30
2018-04-28T07:06:24.863Z,17.20
2018-04-28T07:08:01.678Z,17.10
2018-04-28T07:09:37.646Z,17.10
2018-04-28T07:11:17.546Z,17.30
2018-04-28T07:12:53.747Z,17.30
2018-04-28T07:14:29.923Z,17.40
2018-04-28T07:16:08.026Z,17.70
2018-04-28T07:17:45.130Z,17.80
2018-04-28T07:19:25.266Z,17.70
2018-04-28T07:21:01.785Z,17.70
2018-04-28T07:22:42.663Z,17.70
2018-04-28T07:24:19.047Z,17.60
2018-04-28T07:25:55.503Z,17.40
2018-04-28T07:27:31.678Z,17.10
2018-04-28T07:29:07.878Z,17.30
2018-04-28T07:30:44.258Z,17.30
2018-04-28T07:32:20.659Z,17.30
2018-04-28T07:33:57.801Z,17.30
2018-04-28T07:35:33.894Z,17.30
2018-04-28T07:37:11.700Z,17.50
2018-04-28T07:38:48.567Z,17.70
2018-04-28T07:40:28.912Z,17.90
2018-04-28T07:42:05.080Z,17.80
2018-04-28T07:43:42.351Z,18.10
2018-04-28T07:45:19.358Z,18.20
2018-04-28T07:46:56.759Z,18.20
2018-04-28T07:48:32.997Z,18.00
2018-04-28T07:50:09.747Z,17.90
2018-04-28T07:51:46.718Z,17.60
2018-04-28T07:53:23.576Z,17.80
2018-04-28T07:55:00.495Z,18.00
2018-04-28T07:56:37.084Z,18.00
2018-04-28T07:58:13.233Z,18.10
2018-04-28T07:59:49.188Z,18.20
2018-04-28T08:01:25.541Z,18.30
2018-04-28T08:03:02.389Z,18.40
2018-04-28T08:04:38.500Z,18.50
2018-04-28T08:06:14.699Z,18.50
2018-04-28T08:07:51.644Z,18.40
2018-04-28T08:09:28.765Z,18.40
2018-04-28T08:11:04.958Z,18.30
2018-04-28T08:12:41.147Z,18.40
2018-04-28T08:14:18.045Z,18.20
2018-04-28T08:15:54.905Z,18.20
2018-04-28T08:17:31.918Z,18.70
2018-04-28T08:19:08.167Z,18.70
2018-04-28T08:20:44.434Z,18.90
2018-04-28T08:22:21.020Z,18.70
2018-04-28T08:23:57.261Z,18.40
2018-04-28T08:25:33.514Z,18.70
2018-04-28T08:27:09.788Z,18.80
2018-04-28T08:28:46.627Z,19.00
2018-04-28T08:30:24.709Z,19.10
2018-04-28T08:32:01.154Z,18.90
2018-04-28T08:33:37.322Z,18.90
2018-04-28T08:35:14.008Z,18.80
2018-04-28T08:36:50.969Z,19.00
2018-04-28T08:38:27.209Z,19.00
2018-04-28T08:40:04.310Z,19.10
2018-04-28T08:41:41.100Z,19.10
2018-04-28T08:43:17.299Z,19.50
2018-04-28T08:44:53.470Z,20.10
2018-04-28T08:46:29.700Z,20.20
2018-04-28T08:48:06.752Z,20.40
2018-04-28T08:49:42.740Z,20.30
2018-04-28T08:51:18.834Z,20.30
2018-04-28T08:52:55.100Z,20.00
2018-04-28T08:54:31.612Z,19.90
2018-04-28T08:56:08.081Z,19.40
2018-04-28T08:57:45.197Z,20.00
2018-04-28T08:59:22.094Z,19.90
2018-04-28T09:00:59.282Z,20.20
2018-04-28T09:02:36.372Z,20.20
2018-04-28T09:04:13.177Z,19.70
2018-04-28T09:05:49.255Z,19.70
2018-04-28T09:07:27.801Z,19.70
2018-04-28T09:09:03.917Z,19.80
2018-04-28T09:10:40.397Z,19.60
2018-04-28T09:12:18.254Z,19.20
2018-04-28T09:13:55.231Z,19.10
2018-04-28T09:15:31.949Z,19.20
2018-04-28T09:17:08.226Z,19.10
2018-04-28T09:18:44.591Z,19.10
2018-04-28T09:20:21.362Z,19.00
2018-04-28T09:21:58.301Z,18.80
2018-04-28T09:23:34.915Z,18.80
2018-04-28T09:25:11.258Z,18.80
2018-04-28T09:26:48.180Z,19.00
2018-04-28T09:28:24.481Z,19.10
2018-04-28T09:30:02.880Z,19.00
2018-04-28T09:31:39.682Z,18.90
2018-04-28T09:33:16.078Z,19.10
2018-04-28T09:34:52.348Z,18.50
2018-04-28T09:36:28.734Z,18.90
2018-04-28T09:38:05.552Z,18.80
2018-04-28T09:39:42.240Z,19.00
2018-04-28T09:41:18.622Z,19.10
2018-04-28T09:42:55.037Z,19.00
2018-04-28T09:44:31.501Z,18.90
2018-04-28T09:46:08.325Z,18.80
2018-04-28T09:47:45.533Z,19.10
2018-04-28T09:49:21.886Z,19.10
2018-04-28T09:50:58.191Z,19.30
2018-04-28T09:54:12.075Z,19.00
2018-04-28T09:55:48.393Z,19.00
2018-04-28T09:57:24.996Z,19.40
2018-04-28T09:59:02.095Z,19.20
2018-04-28T10:00:42.627Z,19.10
2018-04-28T10:02:19.042Z,19.30
2018-04-28T10:03:55.400Z,19.50
2018-04-28T10:05:33.065Z,19.60
2018-04-28T10:07:09.375Z,19.40
2018-04-28T10:08:45.698Z,19.60
2018-04-28T10:10:22.105Z,19.80
2018-04-28T10:11:59.726Z,19.90
2018-04-28T10:13:36.046Z,19.90
2018-04-28T10:15:15.703Z,20.10
2018-04-28T10:16:52.833Z,20.00
2018-04-28T10:18:29.410Z,20.00
2018-04-28T10:20:06.213Z,19.80
2018-04-28T10:21:42.542Z,19.60
2018-04-28T10:23:18.877Z,19.50
2018-04-28T10:24:55.605Z,19.30
2018-04-28T10:26:32.007Z,19.20
2018-04-28T10:28:08.418Z,19.10
2018-04-28T10:29:46.153Z,18.90
2018-04-28T10:31:23.185Z,19.10
2018-04-28T10:33:00.244Z,19.50
2018-04-28T10:34:36.560Z,19.50
2018-04-28T10:36:13.801Z,19.80
2018-04-28T10:37:50.809Z,19.90
2018-04-28T10:39:27.265Z,19.90
2018-04-28T10:41:04.604Z,19.70
2018-04-28T10:42:40.927Z,19.70
2018-04-28T10:44:17.757Z,19.60
2018-04-28T10:45:54.321Z,19.50
2018-04-28T10:47:30.848Z,19.40
2018-04-28T10:49:07.165Z,19.50
2018-04-28T10:50:43.998Z,19.40
2018-04-28T10:52:20.341Z,19.70
2018-04-28T10:53:56.747Z,20.00
2018-04-28T10:55:33.042Z,20.00
2018-04-28T10:57:09.983Z,19.90
2018-04-28T10:58:46.321Z,19.80
2018-04-28T11:00:23.350Z,19.60
2018-04-28T11:01:59.936Z,19.80
2018-04-28T11:03:36.575Z,19.80
2018-04-28T11:05:12.867Z,20.00
2018-04-28T11:06:49.316Z,19.80
2018-04-28T11:08:27.668Z,19.80
2018-04-28T11:10:05.781Z,19.90
2018-04-28T11:11:42.166Z,19.80
2018-04-28T11:13:18.584Z,19.90
2018-04-28T11:14:55.113Z,19.70
2018-04-28T11:16:32.239Z,19.90
2018-04-28T11:18:09.334Z,19.70
2018-04-28T11:19:45.804Z,19.70
2018-04-28T11:21:23.106Z,19.50
2018-04-28T11:22:59.897Z,19.50
2018-04-28T11:24:37.951Z,19.50
2018-04-28T11:26:14.258Z,19.50
2018-04-28T11:27:50.576Z,19.40
2018-04-28T11:29:27.335Z,19.50
2018-04-28T11:31:04.611Z,19.70
2018-04-28T11:32:40.918Z,19.70
2018-04-28T11:34:17.338Z,19.90
2018-04-28T11:35:54.851Z,20.20
2018-04-28T11:37:31.519Z,20.20
2018-04-28T11:39:08.306Z,20.00
2018-04-28T11:40:44.778Z,20.10
2018-04-28T11:42:24.125Z,20.00
2018-04-28T11:44:00.700Z,20.00
2018-04-28T11:45:37.499Z,19.90
2018-04-28T11:48:48.782Z,19.90
2018-04-28T11:50:25.287Z,20.00
2018-04-28T11:52:02.980Z,20.40
2018-04-28T11:53:42.496Z,20.40
2018-04-28T11:55:19.544Z,20.40
2018-04-28T11:56:55.978Z,20.50
2018-04-28T11:58:32.223Z,20.50
2018-04-28T12:00:09.266Z,20.60
2018-04-28T12:01:50.953Z,20.70
2018-04-28T12:03:28.395Z,20.80
2018-04-28T12:05:04.855Z,20.80
2018-04-28T12:06:41.498Z,20.80
2018-04-28T12:08:18.283Z,20.60
2018-04-28T12:09:54.596Z,20.60
2018-04-28T12:11:32.729Z,21.20
2018-04-28T12:13:09.310Z,21.20
2018-04-28T12:14:46.243Z,21.50
2018-04-28T12:16:22.556Z,21.50
2018-04-28T12:17:59.609Z,21.50
2018-04-28T12:19:35.982Z,21.50
2018-04-28T12:21:13.127Z,21.40
2018-04-28T12:22:50.671Z,21.30
2018-04-28T12:24:27.440Z,21.30
2018-04-28T12:26:03.870Z,21.30
2018-04-28T12:27:40.254Z,21.30
2018-04-28T12:29:16.656Z,21.30
2018-04-28T12:32:28.030Z,20.80
2018-04-28T12:34:04.698Z,21.00
2018-04-28T12:35:41.265Z,21.00
2018-04-28T12:37:17.691Z,21.10
2018-04-28T12:38:55.347Z,21.10
2018-04-28T12:40:32.261Z,20.90
2018-04-28T12:42:08.894Z,21.00
2018-04-28T12:43:45.330Z,20.60
2018-04-28T12:45:22.181Z,20.50
2018-04-28T12:46:59.212Z,20.50
2018-04-28T12:48:35.725Z,20.80
2018-04-28T12:50:12.754Z,21.00
2018-04-28T12:51:49.101Z,21.30
2018-04-28T12:53:25.900Z,21.30
2018-04-28T12:55:03.077Z,21.20
2018-04-28T12:56:39.987Z,21.10
2018-04-28T12:58:16.773Z,21.00
2018-04-28T12:59:53.705Z,20.70
2018-04-28T13:01:30.977Z,20.80
2018-04-28T13:03:07.527Z,20.80
2018-04-28T13:04:43.985Z,20.90
2018-04-28T13:06:20.346Z,20.70
2018-04-28T13:07:56.829Z,20.30
2018-04-28T13:09:33.943Z,20.40
2018-04-28T13:11:10.372Z,20.70
2018-04-28T13:12:47.573Z,20.60
2018-04-28T13:14:24.717Z,20.50
2018-04-28T13:16:02.580Z,20.50
2018-04-28T13:17:39.159Z,20.70
2018-04-28T13:19:16.259Z,20.60
2018-04-28T13:20:52.769Z,20.20
2018-04-28T13:22:29.993Z,20.70
2018-04-28T13:24:06.536Z,20.70
2018-04-28T13:25:44.510Z,20.80
2018-04-28T13:27:20.975Z,21.10
2018-04-28T13:28:57.449Z,21.20
2018-04-28T13:30:33.776Z,21.10
2018-04-28T13:32:11.523Z,21.00
2018-04-28T13:33:47.944Z,21.00
2018-04-28T13:35:25.540Z,21.00
2018-04-28T13:37:02.038Z,21.10
2018-04-28T13:38:38.895Z,21.20
2018-04-28T13:40:16.781Z,21.30
2018-04-28T13:41:53.260Z,21.30
2018-04-28T13:43:29.705Z,21.40
2018-04-28T13:45:17.357Z,21.50
2018-04-28T13:46:53.849Z,21.60
2018-04-28T13:48:31.179Z,21.30
2018-04-28T13:50:08.780Z,21.00
2018-04-28T13:51:45.948Z,21.20
2018-04-28T13:53:22.502Z,21.20
2018-04-28T13:54:58.842Z,21.40
2018-04-28T13:56:36.189Z,21.30
2018-04-28T13:58:13.650Z,21.40
2018-04-28T13:59:50.919Z,21.30
2018-04-28T14:01:27.805Z,21.30
2018-04-28T14:04:42.410Z,21.60
2018-04-28T14:06:18.865Z,21.40
2018-04-28T14:07:56.128Z,21.30
2018-04-28T14:09:33.311Z,21.20
2018-04-28T14:11:13.110Z,21.20
2018-04-28T14:12:49.461Z,21.30
2018-04-28T14:14:25.868Z,21.40
2018-04-28T14:16:02.935Z,21.30
2018-04-28T14:17:39.739Z,21.40
2018-04-28T14:19:17.147Z,21.40
2018-04-28T14:20:54.692Z,21.50
2018-04-28T14:22:31.353Z,21.50
2018-04-28T14:24:08.197Z,21.60
2018-04-28T14:25:44.748Z,21.60
2018-04-28T14:27:21.365Z,21.30
2018-04-28T14:28:58.900Z,21.30
2018-04-28T14:30:35.886Z,21.30
2018-04-28T14:32:15.276Z,21.10
2018-04-28T14:33:52.334Z,21.00
2018-04-28T14:35:29.256Z,21.20
2018-04-28T14:37:06.472Z,21.30
2018-04-28T14:38:43.789Z,21.30
2018-04-28T14:40:20.157Z,21.30
2018-04-28T14:41:57.263Z,21.30
2018-04-28T14:43:34.534Z,21.30
2018-04-28T14:45:12.420Z,21.30
2018-04-28T14:46:49.011Z,21.10
2018-04-28T14:48:25.314Z,21.10
2018-04-28T14:50:01.867Z,20.70
2018-04-28T14:51:38.241Z,20.90
2018-04-28T14:53:15.403Z,21.10
2018-04-28T14:54:52.177Z,21.30
2018-04-28T14:56:29.423Z,21.30
2018-04-28T14:58:06.199Z,21.10
2018-04-28T14:59:42.578Z,20.70
2018-04-28T15:01:19.453Z,20.60
2018-04-28T15:02:55.933Z,20.50
2018-04-28T15:04:32.440Z,20.60
2018-04-28T15:06:08.767Z,20.50
2018-04-28T15:07:45.116Z,20.60
2018-04-28T15:09:21.449Z,20.60
2018-04-28T15:10:58.676Z,21.00
2018-04-28T15:12:34.994Z,20.90
2018-04-28T15:14:12.991Z,21.10
2018-04-28T15:15:49.502Z,21.00
2018-04-28T15:17:25.822Z,21.00
2018-04-28T15:19:03.018Z,21.10
2018-04-28T15:20:39.813Z,21.10
2018-04-28T15:22:17.129Z,21.00
2018-04-28T15:23:53.563Z,20.90
2018-04-28T15:25:29.861Z,21.10
2018-04-28T15:27:06.483Z,21.10
2018-04-28T15:28:42.875Z,21.20
2018-04-28T15:30:20.119Z,21.20
2018-04-28T15:31:57.226Z,21.30
2018-04-28T15:33:34.714Z,21.30
2018-04-28T15:35:11.196Z,21.30
2018-04-28T15:37:14.305Z,21.40
2018-04-28T15:38:56.190Z,21.50
2018-04-28T15:40:34.260Z,21.50
2018-04-28T15:42:17.003Z,21.50
2018-04-28T15:43:57.706Z,20.90
2018-04-28T15:45:35.308Z,20.90
2018-04-28T15:47:11.993Z,20.70
2018-04-28T15:48:49.147Z,21.00
2018-04-28T15:50:25.529Z,21.00
2018-04-28T15:52:03.165Z,20.90
2018-04-28T15:53:39.686Z,20.90
2018-04-28T15:55:16.469Z,21.30
2018-04-28T15:56:52.980Z,21.40
2018-04-28T15:58:30.152Z,20.80
2018-04-28T16:00:08.839Z,20.80
2018-04-28T16:01:45.874Z,20.80
2018-04-28T16:03:22.663Z,21.10
2018-04-28T16:05:00.166Z,21.30
2018-04-28T16:06:39.330Z,21.50
2018-04-28T16:08:15.795Z,21.60
2018-04-28T16:09:52.150Z,21.50
2018-04-28T16:11:30.439Z,21.70
2018-04-28T16:13:06.971Z,21.70
2018-04-28T16:14:43.640Z,21.60
2018-04-28T16:16:20.369Z,21.50
2018-04-28T16:17:57.898Z,21.30
2018-04-28T16:19:35.964Z,21.20
2018-04-28T16:21:12.462Z,21.10
2018-04-28T16:22:48.989Z,21.10
2018-04-28T16:24:25.566Z,21.20
2018-04-28T16:26:02.063Z,21.40
2018-04-28T16:27:40.396Z,21.20
2018-04-28T16:29:18.442Z,21.10
2018-04-28T16:30:56.030Z,21.20
2018-04-28T16:32:33.101Z,21.40
2018-04-28T16:34:09.661Z,21.30
2018-04-28T16:35:53.159Z,21.20
2018-04-28T16:37:31.090Z,21.00
2018-04-28T16:39:08.207Z,21.00
2018-04-28T16:40:44.596Z,21.00
2018-04-28T16:42:21.812Z,20.80
2018-04-28T16:43:58.862Z,20.80
2018-04-28T16:45:35.303Z,20.90
2018-04-28T16:47:11.593Z,21.00
2018-04-28T16:48:48.687Z,21.00
2018-04-28T16:50:26.687Z,21.00
2018-04-28T16:52:03.752Z,21.10
2018-04-28T16:53:41.000Z,20.60
2018-04-28T16:55:17.364Z,20.60
2018-04-28T16:56:53.813Z,20.60
2018-04-28T16:58:30.206Z,20.20
2018-04-28T17:00:10.697Z,20.60
2018-04-28T17:01:47.311Z,20.90
2018-04-28T17:03:24.304Z,21.00
2018-04-28T17:05:01.552Z,21.20
2018-04-28T17:06:38.774Z,21.20
2018-04-28T17:08:20.280Z,21.20
2018-04-28T17:09:57.087Z,20.90
2018-04-28T17:11:33.518Z,20.90
2018-04-28T17:13:10.487Z,20.90
2018-04-28T17:14:47.942Z,21.10
2018-04-28T17:16:25.102Z,21.20
2018-04-28T17:18:01.551Z,21.30
2018-04-28T17:19:38.206Z,21.40
2018-04-28T17:21:14.603Z,21.40
2018-04-28T17:22:51.512Z,21.20
2018-04-28T17:24:28.218Z,21.30
2018-04-28T17:26:04.577Z,21.50
2018-04-28T17:27:42.713Z,21.50
2018-04-28T17:29:19.161Z,21.40
2018-04-28T17:30:59.686Z,21.30
2018-04-28T17:32:36.328Z,21.40
2018-04-28T17:34:13.718Z,21.40
2018-04-28T17:35:52.765Z,21.20
2018-04-28T17:37:32.827Z,21.10
2018-04-28T17:39:09.455Z,20.70
2018-04-28T17:40:46.826Z,20.30
2018-04-28T17:42:23.280Z,20.00
2018-04-28T17:43:59.642Z,19.90
2018-04-28T17:45:36.342Z,20.00
2018-04-28T17:47:14.059Z,19.80
2018-04-28T17:48:51.569Z,20.00
2018-04-28T17:50:28.026Z,20.50
2018-04-28T17:52:04.493Z,20.80
2018-04-28T17:53:41.385Z,20.60
2018-04-28T17:55:25.475Z,20.40
2018-04-28T17:57:01.936Z,20.50
2018-04-28T17:58:38.402Z,20.60
2018-04-28T18:00:18.542Z,20.40
2018-04-28T18:01:56.308Z,20.40
2018-04-28T18:03:33.494Z,20.50
2018-04-28T18:05:11.569Z,20.30
2018-04-28T18:06:49.445Z,20.20
2018-04-28T18:08:27.896Z,20.30
2018-04-28T18:10:04.943Z,20.20
2018-04-28T18:11:41.663Z,20.20
2018-04-28T18:13:19.296Z,20.10
2018-04-28T18:14:56.686Z,19.90
2018-04-28T18:16:33.653Z,19.70
2018-04-28T18:18:10.113Z,19.50
2018-04-28T18:19:48.133Z,19.20
2018-04-28T18:21:25.318Z,19.20
2018-04-28T18:23:01.728Z,19.30
2018-04-28T18:24:39.689Z,19.30
2018-04-28T18:26:16.812Z,19.30
2018-04-28T18:27:53.563Z,19.30
2018-04-28T18:29:31.761Z,19.30
2018-04-28T18:31:10.743Z,19.40
2018-04-28T18:32:58.846Z,19.50
2018-04-28T18:34:37.571Z,19.40
2018-04-28T18:36:14.897Z,19.40
2018-04-28T18:37:52.177Z,19.30
2018-04-28T18:39:29.150Z,19.30
2018-04-28T18:41:06.344Z,19.20
2018-04-28T18:42:45.795Z,19.20
2018-04-28T18:44:26.038Z,19.30
2018-04-28T18:46:03.435Z,19.40
2018-04-28T18:47:43.778Z,19.20
2018-04-28T18:49:22.397Z,19.20
2018-04-28T18:50:59.619Z,19.20
2018-04-28T18:52:36.092Z,19.10
2018-04-28T18:54:12.510Z,19.40
2018-04-28T18:55:48.958Z,19.40
2018-04-28T18:57:26.471Z,19.60
2018-04-28T18:59:02.844Z,19.60
2018-04-28T19:00:40.175Z,19.90
2018-04-28T19:02:18.186Z,19.90
2018-04-28T19:03:54.696Z,19.90
2018-04-28T19:05:31.359Z,19.90
2018-04-28T19:07:07.907Z,19.40
2018-04-28T19:08:45.276Z,19.40
2018-04-28T19:10:21.754Z,19.00
2018-04-28T19:11:58.216Z,18.90
2018-04-28T19:13:34.663Z,19.20
2018-04-28T19:15:12.909Z,19.50
2018-04-28T19:16:49.610Z,19.70
2018-04-28T19:18:26.411Z,19.80
2018-04-28T19:20:03.875Z,19.70
2018-04-28T19:21:41.726Z,18.90
2018-04-28T19:23:18.351Z,18.90
2018-04-28T19:24:56.119Z,19.00
2018-04-28T19:26:32.574Z,19.00
2018-04-28T19:28:09.969Z,19.20
2018-04-28T19:29:46.821Z,19.50
2018-04-28T19:31:23.279Z,19.80
2018-04-28T19:33:00.133Z,20.00
2018-04-28T19:34:36.817Z,20.10
2018-04-28T19:36:42.048Z,20.10
2018-04-28T19:38:18.730Z,20.10
2018-04-28T19:39:55.804Z,20.10
2018-04-28T19:41:35.815Z,20.20
2018-04-28T19:43:12.375Z,20.30
2018-04-28T19:44:52.035Z,20.20
2018-04-28T19:46:28.696Z,20.10
2018-04-28T19:48:06.993Z,20.20
2018-04-28T19:49:44.032Z,20.20
2018-04-28T19:51:20.921Z,19.80
2018-04-28T19:52:57.548Z,19.40
2018-04-28T19:54:35.018Z,19.30
2018-04-28T19:56:12.890Z,19.20
2018-04-28T19:57:50.663Z,19.30
2018-04-28T19:59:28.121Z,19.30
2018-04-28T20:01:05.200Z,19.50
2018-04-28T20:02:41.846Z,19.70
2018-04-28T20:04:19.523Z,19.50
2018-04-28T20:05:56.790Z,19.30
2018-04-28T20:07:33.323Z,19.30
2018-04-28T20:09:10.023Z,19.20
2018-04-28T20:10:48.959Z,19.20
2018-04-28T20:12:26.953Z,19.10
2018-04-28T20:14:03.622Z,19.10
2018-04-28T20:15:40.762Z,18.60
2018-04-28T20:17:17.874Z,18.30
2018-04-28T20:18:54.716Z,18.30
2018-04-28T20:20:31.180Z,18.40
2018-04-28T20:22:21.385Z,18.40
2018-04-28T20:26:05.143Z,18.60
2018-04-28T20:27:42.084Z,18.40
2018-04-28T20:29:18.435Z,17.60
2018-04-28T20:30:55.682Z,17.20
2018-04-28T20:32:32.206Z,17.20
2018-04-28T20:34:09.127Z,17.10
2018-04-28T20:35:45.552Z,17.00
2018-04-28T20:37:22.001Z,17.00
2018-04-28T20:38:59.202Z,17.30
2018-04-28T20:40:36.020Z,17.30
2018-04-28T20:42:13.603Z,17.30
2018-04-28T20:43:50.470Z,17.50
2018-04-28T20:45:26.965Z,17.40
2018-04-28T20:47:03.589Z,17.10
2018-04-28T20:48:40.154Z,16.90
2018-04-28T20:50:16.626Z,16.90
2018-04-28T20:51:53.875Z,16.70
2018-04-28T20:53:30.333Z,16.70
2018-04-28T20:55:06.801Z,16.70
2018-04-28T20:56:43.228Z,16.70
2018-04-28T20:58:20.746Z,16.60
2018-04-28T20:59:57.282Z,16.60
2018-04-28T21:01:33.836Z,16.60
2018-04-28T21:03:13.047Z,16.60
2018-04-28T21:04:50.334Z,16.60
2018-04-28T21:06:30.350Z,16.60